sensor_id;sensor_type;location;lat;lon;timestamp;P1;durP1;ratioP1;P2;durP2;ratioP2
5345;SDS011;2695;49.444;11.054;2022-11-02T00:01:00;11.33;;;7.10;;
5345;SDS011;2695;49.444;11.054;2022-11-02T00:03:39;9.20;;;6.40;;
5345;SDS011;2695;49.444;11.054;2022-11-02T00:06:08;9.53;;;7.00;;
5345;SDS011;2695;49.444;11.054;2022-11-02T00:08:36;11.03;;;6.40;;
5345;SDS011;2695;49.444;11.054;2022-11-02T00:11:04;8.17;;;5.47;;
5345;SDS011;2695;49.444;11.054;2022-11-02T00:13:32;10.40;;;6.17;;
5345;SDS011;2695;49.444;11.054;2022-11-02T00:16:01;10.50;;;6.73;;
5345;SDS011;2695;49.444;11.054;2022-11-02T00:18:30;15.30;;;7.23;;
5345;SDS011;2695;49.444;11.054;2022-11-02T00:21:00;9.87;;;6.60;;
5345;SDS011;2695;49.444;11.054;2022-11-02T00:23:29;9.80;;;6.03;;
5345;SDS011;2695;49.444;11.054;2022-11-02T00:26:00;10.07;;;6.83;;
5345;SDS011;2695;49.444;11.054;2022-11-02T00:28:29;11.53;;;7.00;;
5345;SDS011;2695;49.444;11.054;2022-11-02T00:30:57;9.93;;;6.63;;
5345;SDS011;2695;49.444;11.054;2022-11-02T00:33:25;10.13;;;6.80;;
5345;SDS011;2695;49.444;11.054;2022-11-02T00:35:53;9.87;;;6.10;;
5345;SDS011;2695;49.444;11.054;2022-11-02T00:38:22;11.50;;;6.23;;
5345;SDS011;2695;49.444;11.054;2022-11-02T00:40:51;7.77;;;6.07;;
5345;SDS011;2695;49.444;11.054;2022-11-02T00:43:19;8.80;;;6.00;;
5345;SDS011;2695;49.444;11.054;2022-11-02T00:45:47;11.07;;;6.53;;
5345;SDS011;2695;49.444;11.054;2022-11-02T00:48:15;7.30;;;6.07;;
5345;SDS011;2695;49.444;11.054;2022-11-02T00:50:43;11.67;;;6.67;;
5345;SDS011;2695;49.444;11.054;2022-11-02T00:53:11;9.23;;;6.20;;
5345;SDS011;2695;49.444;11.054;2022-11-02T00:55:39;11.67;;;6.97;;
5345;SDS011;2695;49.444;11.054;2022-11-02T00:58:08;13.47;;;7.87;;
5345;SDS011;2695;49.444;11.054;2022-11-02T01:00:36;9.27;;;6.43;;
5345;SDS011;2695;49.444;11.054;2022-11-02T01:03:04;16.10;;;7.70;;
5345;SDS011;2695;49.444;11.054;2022-11-02T01:05:32;12.60;;;7.23;;
5345;SDS011;2695;49.444;11.054;2022-11-02T01:08:00;9.00;;;7.07;;
5345;SDS011;2695;49.444;11.054;2022-11-02T01:10:29;14.00;;;7.90;;
5345;SDS011;2695;49.444;11.054;2022-11-02T01:12:57;14.50;;;7.70;;
5345;SDS011;2695;49.444;11.054;2022-11-02T01:15:26;10.30;;;6.43;;
5345;SDS011;2695;49.444;11.054;2022-11-02T01:17:54;8.33;;;5.27;;
5345;SDS011;2695;49.444;11.054;2022-11-02T01:20:22;15.90;;;5.43;;
5345;SDS011;2695;49.444;11.054;2022-11-02T01:22:50;12.03;;;6.13;;
5345;SDS011;2695;49.444;11.054;2022-11-02T01:25:18;11.80;;;6.40;;
5345;SDS011;2695;49.444;11.054;2022-11-02T01:27:46;9.57;;;5.23;;
5345;SDS011;2695;49.444;11.054;2022-11-02T01:30:14;11.13;;;6.00;;
5345;SDS011;2695;49.444;11.054;2022-11-02T01:32:44;11.83;;;6.57;;
5345;SDS011;2695;49.444;11.054;2022-11-02T01:35:12;10.53;;;6.77;;
5345;SDS011;2695;49.444;11.054;2022-11-02T01:37:42;9.37;;;6.63;;
5345;SDS011;2695;49.444;11.054;2022-11-02T01:40:10;11.57;;;6.53;;
5345;SDS011;2695;49.444;11.054;2022-11-02T01:42:38;8.30;;;6.47;;
5345;SDS011;2695;49.444;11.054;2022-11-02T01:45:08;14.10;;;6.87;;
5345;SDS011;2695;49.444;11.054;2022-11-02T01:47:37;10.40;;;6.80;;
5345;SDS011;2695;49.444;11.054;2022-11-02T01:50:11;14.47;;;6.73;;
5345;SDS011;2695;49.444;11.054;2022-11-02T01:52:43;9.50;;;5.93;;
5345;SDS011;2695;49.444;11.054;2022-11-02T01:55:12;10.50;;;5.50;;
5345;SDS011;2695;49.444;11.054;2022-11-02T01:57:45;13.70;;;5.87;;
5345;SDS011;2695;49.444;11.054;2022-11-02T02:00:15;7.90;;;5.17;;
5345;SDS011;2695;49.444;11.054;2022-11-02T02:02:46;7.60;;;5.10;;
5345;SDS011;2695;49.444;11.054;2022-11-02T02:05:20;6.00;;;4.80;;
5345;SDS011;2695;49.444;11.054;2022-11-02T02:07:50;10.33;;;4.57;;
5345;SDS011;2695;49.444;11.054;2022-11-02T02:10:19;5.20;;;4.00;;
5345;SDS011;2695;49.444;11.054;2022-11-02T02:12:48;7.77;;;4.60;;
5345;SDS011;2695;49.444;11.054;2022-11-02T02:15:16;9.00;;;4.83;;
5345;SDS011;2695;49.444;11.054;2022-11-02T02:17:47;12.63;;;5.00;;
5345;SDS011;2695;49.444;11.054;2022-11-02T02:20:32;7.90;;;4.40;;
5345;SDS011;2695;49.444;11.054;2022-11-02T02:26:16;6.00;;;4.60;;
5345;SDS011;2695;49.444;11.054;2022-11-02T02:29:01;4.57;;;4.10;;
5345;SDS011;2695;49.444;11.054;2022-11-02T02:31:32;6.67;;;4.00;;
5345;SDS011;2695;49.444;11.054;2022-11-02T02:34:03;5.53;;;4.50;;
5345;SDS011;2695;49.444;11.054;2022-11-02T02:36:39;10.20;;;4.10;;
5345;SDS011;2695;49.444;11.054;2022-11-02T02:39:13;6.03;;;4.40;;
5345;SDS011;2695;49.444;11.054;2022-11-02T02:41:47;4.97;;;4.30;;
5345;SDS011;2695;49.444;11.054;2022-11-02T02:44:27;8.40;;;4.50;;
5345;SDS011;2695;49.444;11.054;2022-11-02T02:46:59;4.90;;;3.60;;
5345;SDS011;2695;49.444;11.054;2022-11-02T02:49:33;7.37;;;3.93;;
5345;SDS011;2695;49.444;11.054;2022-11-02T02:52:04;9.70;;;4.53;;
5345;SDS011;2695;49.444;11.054;2022-11-02T02:54:34;6.80;;;4.53;;
5345;SDS011;2695;49.444;11.054;2022-11-02T02:57:09;6.60;;;4.30;;
5345;SDS011;2695;49.444;11.054;2022-11-02T02:59:41;14.70;;;4.83;;
5345;SDS011;2695;49.444;11.054;2022-11-02T03:02:11;11.13;;;4.70;;
5345;SDS011;2695;49.444;11.054;2022-11-02T03:04:43;9.50;;;5.57;;
5345;SDS011;2695;49.444;11.054;2022-11-02T03:07:12;8.60;;;5.10;;
5345;SDS011;2695;49.444;11.054;2022-11-02T03:09:43;13.60;;;5.30;;
5345;SDS011;2695;49.444;11.054;2022-11-02T03:12:20;10.93;;;5.20;;
5345;SDS011;2695;49.444;11.054;2022-11-02T03:14:57;10.03;;;4.90;;
5345;SDS011;2695;49.444;11.054;2022-11-02T03:17:39;10.80;;;4.67;;
5345;SDS011;2695;49.444;11.054;2022-11-02T03:20:17;7.60;;;5.00;;
5345;SDS011;2695;49.444;11.054;2022-11-02T03:22:51;8.90;;;5.20;;
5345;SDS011;2695;49.444;11.054;2022-11-02T03:25:33;13.67;;;5.57;;
5345;SDS011;2695;49.444;11.054;2022-11-02T03:28:11;13.60;;;6.10;;
5345;SDS011;2695;49.444;11.054;2022-11-02T03:30:46;6.60;;;4.57;;
5345;SDS011;2695;49.444;11.054;2022-11-02T03:33:19;4.77;;;3.90;;
5345;SDS011;2695;49.444;11.054;2022-11-02T03:35:54;10.70;;;4.97;;
5345;SDS011;2695;49.444;11.054;2022-11-02T03:38:24;8.10;;;3.43;;
5345;SDS011;2695;49.444;11.054;2022-11-02T03:41:00;11.93;;;4.00;;
5345;SDS011;2695;49.444;11.054;2022-11-02T03:43:31;8.43;;;4.10;;
5345;SDS011;2695;49.444;11.054;2022-11-02T03:46:02;6.83;;;4.40;;
5345;SDS011;2695;49.444;11.054;2022-11-02T03:48:35;6.97;;;4.60;;
5345;SDS011;2695;49.444;11.054;2022-11-02T03:51:07;8.87;;;3.90;;
5345;SDS011;2695;49.444;11.054;2022-11-02T03:53:41;13.67;;;4.37;;
5345;SDS011;2695;49.444;11.054;2022-11-02T03:56:15;9.80;;;4.50;;
5345;SDS011;2695;49.444;11.054;2022-11-02T03:58:47;6.40;;;3.70;;
5345;SDS011;2695;49.444;11.054;2022-11-02T04:01:17;19.53;;;4.30;;
5345;SDS011;2695;49.444;11.054;2022-11-02T04:03:47;4.77;;;3.70;;
5345;SDS011;2695;49.444;11.054;2022-11-02T04:06:15;10.60;;;4.60;;
5345;SDS011;2695;49.444;11.054;2022-11-02T04:08:44;10.13;;;4.37;;
5345;SDS011;2695;49.444;11.054;2022-11-02T04:11:15;12.37;;;4.30;;
5345;SDS011;2695;49.444;11.054;2022-11-02T04:14:00;7.13;;;4.33;;
5345;SDS011;2695;49.444;11.054;2022-11-02T04:16:47;4.93;;;3.90;;
5345;SDS011;2695;49.444;11.054;2022-11-02T04:19:15;11.80;;;4.40;;
5345;SDS011;2695;49.444;11.054;2022-11-02T04:21:55;4.50;;;3.90;;
5345;SDS011;2695;49.444;11.054;2022-11-02T04:24:41;7.03;;;5.17;;
5345;SDS011;2695;49.444;11.054;2022-11-02T04:27:26;11.33;;;4.40;;
5345;SDS011;2695;49.444;11.054;2022-11-02T04:29:55;7.60;;;4.30;;
5345;SDS011;2695;49.444;11.054;2022-11-02T04:32:24;10.03;;;4.23;;
5345;SDS011;2695;49.444;11.054;2022-11-02T04:35:10;7.50;;;4.20;;
5345;SDS011;2695;49.444;11.054;2022-11-02T04:37:38;10.90;;;4.27;;
5345;SDS011;2695;49.444;11.054;2022-11-02T04:40:24;6.63;;;3.90;;
5345;SDS011;2695;49.444;11.054;2022-11-02T04:42:53;9.63;;;4.53;;
5345;SDS011;2695;49.444;11.054;2022-11-02T04:45:20;7.23;;;3.30;;
5345;SDS011;2695;49.444;11.054;2022-11-02T04:47:49;5.87;;;4.40;;
5345;SDS011;2695;49.444;11.054;2022-11-02T04:50:17;6.00;;;4.60;;
5345;SDS011;2695;49.444;11.054;2022-11-02T04:52:45;8.20;;;4.37;;
5345;SDS011;2695;49.444;11.054;2022-11-02T04:55:13;10.57;;;4.80;;
5345;SDS011;2695;49.444;11.054;2022-11-02T04:57:43;10.43;;;4.70;;
5345;SDS011;2695;49.444;11.054;2022-11-02T05:00:12;10.37;;;4.60;;
5345;SDS011;2695;49.444;11.054;2022-11-02T05:02:41;13.67;;;4.43;;
5345;SDS011;2695;49.444;11.054;2022-11-02T05:05:11;8.00;;;4.70;;
5345;SDS011;2695;49.444;11.054;2022-11-02T05:07:39;8.67;;;4.90;;
5345;SDS011;2695;49.444;11.054;2022-11-02T05:10:08;11.30;;;5.33;;
5345;SDS011;2695;49.444;11.054;2022-11-02T05:12:37;12.47;;;4.77;;
5345;SDS011;2695;49.444;11.054;2022-11-02T05:15:06;6.10;;;3.70;;
5345;SDS011;2695;49.444;11.054;2022-11-02T05:17:35;7.00;;;3.60;;
5345;SDS011;2695;49.444;11.054;2022-11-02T05:20:03;9.57;;;4.07;;
5345;SDS011;2695;49.444;11.054;2022-11-02T05:22:35;5.70;;;3.60;;
5345;SDS011;2695;49.444;11.054;2022-11-02T05:25:03;15.73;;;4.67;;
5345;SDS011;2695;49.444;11.054;2022-11-02T05:27:32;5.30;;;3.90;;
5345;SDS011;2695;49.444;11.054;2022-11-02T05:30:00;10.70;;;3.30;;
5345;SDS011;2695;49.444;11.054;2022-11-02T05:32:29;4.80;;;3.57;;
5345;SDS011;2695;49.444;11.054;2022-11-02T05:34:57;8.03;;;4.20;;
5345;SDS011;2695;49.444;11.054;2022-11-02T05:37:25;6.63;;;3.20;;
5345;SDS011;2695;49.444;11.054;2022-11-02T05:39:55;9.00;;;3.80;;
5345;SDS011;2695;49.444;11.054;2022-11-02T05:42:24;11.17;;;4.07;;
5345;SDS011;2695;49.444;11.054;2022-11-02T05:44:52;4.90;;;3.50;;
5345;SDS011;2695;49.444;11.054;2022-11-02T05:47:20;9.20;;;3.70;;
5345;SDS011;2695;49.444;11.054;2022-11-02T05:49:48;8.47;;;3.57;;
5345;SDS011;2695;49.444;11.054;2022-11-02T05:52:16;6.70;;;3.53;;
5345;SDS011;2695;49.444;11.054;2022-11-02T05:54:45;3.63;;;2.90;;
5345;SDS011;2695;49.444;11.054;2022-11-02T05:57:14;6.17;;;3.43;;
5345;SDS011;2695;49.444;11.054;2022-11-02T05:59:44;3.87;;;2.80;;
5345;SDS011;2695;49.444;11.054;2022-11-02T06:02:14;7.27;;;3.70;;
5345;SDS011;2695;49.444;11.054;2022-11-02T06:04:47;5.80;;;3.30;;
5345;SDS011;2695;49.444;11.054;2022-11-02T06:07:15;9.43;;;3.23;;
5345;SDS011;2695;49.444;11.054;2022-11-02T06:09:43;5.10;;;3.07;;
5345;SDS011;2695;49.444;11.054;2022-11-02T06:12:11;7.13;;;3.40;;
5345;SDS011;2695;49.444;11.054;2022-11-02T06:14:44;5.20;;;3.13;;
5345;SDS011;2695;49.444;11.054;2022-11-02T06:17:12;10.37;;;3.10;;
5345;SDS011;2695;49.444;11.054;2022-11-02T06:19:40;5.10;;;3.47;;
5345;SDS011;2695;49.444;11.054;2022-11-02T06:22:09;5.33;;;2.90;;
5345;SDS011;2695;49.444;11.054;2022-11-02T06:24:37;8.37;;;3.80;;
5345;SDS011;2695;49.444;11.054;2022-11-02T06:27:05;6.70;;;3.90;;
5345;SDS011;2695;49.444;11.054;2022-11-02T06:29:33;4.40;;;3.03;;
5345;SDS011;2695;49.444;11.054;2022-11-02T06:32:03;12.33;;;3.57;;
5345;SDS011;2695;49.444;11.054;2022-11-02T06:34:31;16.27;;;3.30;;
5345;SDS011;2695;49.444;11.054;2022-11-02T06:36:59;16.53;;;3.50;;
5345;SDS011;2695;49.444;11.054;2022-11-02T06:39:28;8.73;;;3.17;;
5345;SDS011;2695;49.444;11.054;2022-11-02T06:41:56;10.53;;;3.60;;
5345;SDS011;2695;49.444;11.054;2022-11-02T06:44:24;6.80;;;3.00;;
5345;SDS011;2695;49.444;11.054;2022-11-02T06:46:52;6.43;;;3.03;;
5345;SDS011;2695;49.444;11.054;2022-11-02T06:49:22;7.87;;;2.80;;
5345;SDS011;2695;49.444;11.054;2022-11-02T06:51:50;9.33;;;3.17;;
5345;SDS011;2695;49.444;11.054;2022-11-02T06:54:19;5.57;;;2.40;;
5345;SDS011;2695;49.444;11.054;2022-11-02T06:56:47;10.73;;;2.83;;
5345;SDS011;2695;49.444;11.054;2022-11-02T06:59:15;3.47;;;2.03;;
5345;SDS011;2695;49.444;11.054;2022-11-02T07:01:44;7.53;;;2.40;;
5345;SDS011;2695;49.444;11.054;2022-11-02T07:04:19;20.50;;;2.70;;
5345;SDS011;2695;49.444;11.054;2022-11-02T07:06:49;10.67;;;2.70;;
5345;SDS011;2695;49.444;11.054;2022-11-02T07:09:17;7.37;;;2.63;;
5345;SDS011;2695;49.444;11.054;2022-11-02T07:11:45;8.60;;;2.57;;
5345;SDS011;2695;49.444;11.054;2022-11-02T07:14:13;9.70;;;2.53;;
5345;SDS011;2695;49.444;11.054;2022-11-02T07:16:41;12.40;;;3.30;;
5345;SDS011;2695;49.444;11.054;2022-11-02T07:19:10;4.13;;;2.50;;
5345;SDS011;2695;49.444;11.054;2022-11-02T07:21:39;6.77;;;2.83;;
5345;SDS011;2695;49.444;11.054;2022-11-02T07:24:12;4.40;;;2.27;;
5345;SDS011;2695;49.444;11.054;2022-11-02T07:26:40;7.07;;;2.70;;
5345;SDS011;2695;49.444;11.054;2022-11-02T07:29:08;4.30;;;2.10;;
5345;SDS011;2695;49.444;11.054;2022-11-02T07:31:37;5.60;;;1.83;;
5345;SDS011;2695;49.444;11.054;2022-11-02T07:34:05;3.83;;;1.80;;
5345;SDS011;2695;49.444;11.054;2022-11-02T07:36:38;8.07;;;2.43;;
5345;SDS011;2695;49.444;11.054;2022-11-02T07:39:07;7.83;;;2.77;;
5345;SDS011;2695;49.444;11.054;2022-11-02T07:41:35;11.03;;;2.80;;
5345;SDS011;2695;49.444;11.054;2022-11-02T07:44:03;2.80;;;2.17;;
5345;SDS011;2695;49.444;11.054;2022-11-02T07:46:32;5.30;;;2.30;;
5345;SDS011;2695;49.444;11.054;2022-11-02T07:49:00;4.90;;;2.00;;
5345;SDS011;2695;49.444;11.054;2022-11-02T07:51:28;7.30;;;2.63;;
5345;SDS011;2695;49.444;11.054;2022-11-02T07:53:57;5.73;;;2.60;;
5345;SDS011;2695;49.444;11.054;2022-11-02T07:56:26;3.77;;;2.13;;
5345;SDS011;2695;49.444;11.054;2022-11-02T07:58:54;5.63;;;2.60;;
5345;SDS011;2695;49.444;11.054;2022-11-02T08:01:22;5.97;;;2.60;;
5345;SDS011;2695;49.444;11.054;2022-11-02T08:03:50;6.43;;;1.87;;
5345;SDS011;2695;49.444;11.054;2022-11-02T08:06:19;4.77;;;2.10;;
5345;SDS011;2695;49.444;11.054;2022-11-02T08:08:48;7.27;;;2.10;;
5345;SDS011;2695;49.444;11.054;2022-11-02T08:11:17;4.10;;;1.93;;
5345;SDS011;2695;49.444;11.054;2022-11-02T08:16:13;7.30;;;2.30;;
5345;SDS011;2695;49.444;11.054;2022-11-02T08:18:42;9.20;;;2.93;;
5345;SDS011;2695;49.444;11.054;2022-11-02T08:21:10;5.77;;;2.03;;
5345;SDS011;2695;49.444;11.054;2022-11-02T08:23:39;7.33;;;2.50;;
5345;SDS011;2695;49.444;11.054;2022-11-02T08:26:07;4.47;;;2.50;;
5345;SDS011;2695;49.444;11.054;2022-11-02T08:28:36;6.53;;;3.03;;
5345;SDS011;2695;49.444;11.054;2022-11-02T08:31:07;5.70;;;2.37;;
5345;SDS011;2695;49.444;11.054;2022-11-02T08:33:41;6.47;;;1.80;;
5345;SDS011;2695;49.444;11.054;2022-11-02T08:36:09;4.33;;;1.87;;
5345;SDS011;2695;49.444;11.054;2022-11-02T08:38:37;5.70;;;2.50;;
5345;SDS011;2695;49.444;11.054;2022-11-02T08:41:06;11.47;;;2.90;;
5345;SDS011;2695;49.444;11.054;2022-11-02T08:43:35;3.57;;;2.27;;
5345;SDS011;2695;49.444;11.054;2022-11-02T08:46:04;7.13;;;2.30;;
5345;SDS011;2695;49.444;11.054;2022-11-02T08:48:42;25.30;;;3.47;;
5345;SDS011;2695;49.444;11.054;2022-11-02T08:51:11;9.80;;;3.27;;
5345;SDS011;2695;49.444;11.054;2022-11-02T08:53:39;10.23;;;2.20;;
5345;SDS011;2695;49.444;11.054;2022-11-02T08:56:12;5.70;;;1.93;;
5345;SDS011;2695;49.444;11.054;2022-11-02T08:58:41;7.77;;;2.10;;
5345;SDS011;2695;49.444;11.054;2022-11-02T09:01:09;8.00;;;2.60;;
5345;SDS011;2695;49.444;11.054;2022-11-02T09:03:39;6.87;;;2.10;;
5345;SDS011;2695;49.444;11.054;2022-11-02T09:06:10;14.33;;;2.13;;
5345;SDS011;2695;49.444;11.054;2022-11-02T09:08:41;6.90;;;2.40;;
5345;SDS011;2695;49.444;11.054;2022-11-02T09:11:09;8.60;;;2.67;;
5345;SDS011;2695;49.444;11.054;2022-11-02T09:13:37;15.23;;;3.40;;
5345;SDS011;2695;49.444;11.054;2022-11-02T09:16:07;16.77;;;3.40;;
5345;SDS011;2695;49.444;11.054;2022-11-02T09:18:35;5.13;;;1.90;;
5345;SDS011;2695;49.444;11.054;2022-11-02T09:21:04;11.53;;;2.63;;
5345;SDS011;2695;49.444;11.054;2022-11-02T09:23:32;9.23;;;2.20;;
5345;SDS011;2695;49.444;11.054;2022-11-02T09:26:00;16.27;;;3.20;;
5345;SDS011;2695;49.444;11.054;2022-11-02T09:28:28;13.93;;;2.67;;
5345;SDS011;2695;49.444;11.054;2022-11-02T09:30:56;10.37;;;2.27;;
5345;SDS011;2695;49.444;11.054;2022-11-02T09:33:26;22.07;;;3.10;;
5345;SDS011;2695;49.444;11.054;2022-11-02T09:35:55;9.03;;;2.40;;
5345;SDS011;2695;49.444;11.054;2022-11-02T09:38:27;7.20;;;3.70;;
5345;SDS011;2695;49.444;11.054;2022-11-02T09:40:59;2.73;;;1.80;;
5345;SDS011;2695;49.444;11.054;2022-11-02T09:43:35;8.43;;;2.40;;
5345;SDS011;2695;49.444;11.054;2022-11-02T09:46:12;31.90;;;7.73;;
5345;SDS011;2695;49.444;11.054;2022-11-02T09:48:47;6.13;;;2.17;;
5345;SDS011;2695;49.444;11.054;2022-11-02T09:51:18;10.67;;;3.20;;
5345;SDS011;2695;49.444;11.054;2022-11-02T09:53:53;6.00;;;1.67;;
5345;SDS011;2695;49.444;11.054;2022-11-02T09:56:28;18.40;;;1.90;;
5345;SDS011;2695;49.444;11.054;2022-11-02T09:58:58;16.00;;;2.13;;
5345;SDS011;2695;49.444;11.054;2022-11-02T10:01:35;1.93;;;1.20;;
5345;SDS011;2695;49.444;11.054;2022-11-02T10:04:35;6.57;;;2.67;;
5345;SDS011;2695;49.444;11.054;2022-11-02T10:07:17;3.93;;;1.57;;
5345;SDS011;2695;49.444;11.054;2022-11-02T10:09:56;6.57;;;1.67;;
5345;SDS011;2695;49.444;11.054;2022-11-02T10:12:28;6.40;;;1.90;;
5345;SDS011;2695;49.444;11.054;2022-11-02T10:15:04;6.03;;;2.00;;
5345;SDS011;2695;49.444;11.054;2022-11-02T10:17:38;2.90;;;1.67;;
5345;SDS011;2695;49.444;11.054;2022-11-02T10:20:14;5.13;;;2.07;;
5345;SDS011;2695;49.444;11.054;2022-11-02T10:22:47;9.87;;;2.50;;
5345;SDS011;2695;49.444;11.054;2022-11-02T10:25:16;5.60;;;1.90;;
5345;SDS011;2695;49.444;11.054;2022-11-02T10:27:44;6.23;;;2.80;;
5345;SDS011;2695;49.444;11.054;2022-11-02T10:30:18;10.80;;;2.13;;
5345;SDS011;2695;49.444;11.054;2022-11-02T10:32:48;7.13;;;2.20;;
5345;SDS011;2695;49.444;11.054;2022-11-02T10:35:22;9.60;;;2.80;;
5345;SDS011;2695;49.444;11.054;2022-11-02T10:38:17;3.43;;;1.80;;
5345;SDS011;2695;49.444;11.054;2022-11-02T10:40:59;7.33;;;2.17;;
5345;SDS011;2695;49.444;11.054;2022-11-02T10:43:43;3.57;;;1.80;;
5345;SDS011;2695;49.444;11.054;2022-11-02T10:46:28;4.37;;;1.90;;
5345;SDS011;2695;49.444;11.054;2022-11-02T10:49:08;11.13;;;2.00;;
5345;SDS011;2695;49.444;11.054;2022-11-02T10:51:42;6.40;;;2.20;;
5345;SDS011;2695;49.444;11.054;2022-11-02T10:54:11;6.67;;;1.40;;
5345;SDS011;2695;49.444;11.054;2022-11-02T10:56:48;6.40;;;1.90;;
5345;SDS011;2695;49.444;11.054;2022-11-02T10:59:16;7.60;;;1.30;;
5345;SDS011;2695;49.444;11.054;2022-11-02T11:01:46;10.20;;;1.70;;
5345;SDS011;2695;49.444;11.054;2022-11-02T11:04:30;9.87;;;2.07;;
5345;SDS011;2695;49.444;11.054;2022-11-02T11:07:04;5.50;;;1.57;;
5345;SDS011;2695;49.444;11.054;2022-11-02T11:09:44;6.03;;;1.87;;
5345;SDS011;2695;49.444;11.054;2022-11-02T11:12:15;4.50;;;1.70;;
5345;SDS011;2695;49.444;11.054;2022-11-02T11:14:48;5.10;;;1.40;;
5345;SDS011;2695;49.444;11.054;2022-11-02T11:17:39;5.10;;;1.60;;
5345;SDS011;2695;49.444;11.054;2022-11-02T11:20:32;8.07;;;2.40;;
5345;SDS011;2695;49.444;11.054;2022-11-02T11:23:08;9.13;;;1.90;;
5345;SDS011;2695;49.444;11.054;2022-11-02T11:25:58;2.80;;;1.50;;
5345;SDS011;2695;49.444;11.054;2022-11-02T11:28:29;2.10;;;1.33;;
5345;SDS011;2695;49.444;11.054;2022-11-02T11:31:08;6.73;;;1.83;;
5345;SDS011;2695;49.444;11.054;2022-11-02T11:33:40;9.50;;;2.20;;
5345;SDS011;2695;49.444;11.054;2022-11-02T11:36:09;8.13;;;1.93;;
5345;SDS011;2695;49.444;11.054;2022-11-02T11:38:48;2.53;;;1.07;;
5345;SDS011;2695;49.444;11.054;2022-11-02T11:41:17;11.03;;;1.50;;
5345;SDS011;2695;49.444;11.054;2022-11-02T11:43:46;8.00;;;2.60;;
5345;SDS011;2695;49.444;11.054;2022-11-02T11:46:16;7.00;;;2.00;;
5345;SDS011;2695;49.444;11.054;2022-11-02T11:48:45;5.07;;;1.73;;
5345;SDS011;2695;49.444;11.054;2022-11-02T11:51:23;5.57;;;2.00;;
5345;SDS011;2695;49.444;11.054;2022-11-02T11:54:15;3.40;;;1.20;;
5345;SDS011;2695;49.444;11.054;2022-11-02T11:56:46;4.60;;;1.57;;
5345;SDS011;2695;49.444;11.054;2022-11-02T11:59:19;5.10;;;1.70;;
5345;SDS011;2695;49.444;11.054;2022-11-02T12:01:52;7.93;;;1.70;;
5345;SDS011;2695;49.444;11.054;2022-11-02T12:04:26;4.87;;;1.83;;
5345;SDS011;2695;49.444;11.054;2022-11-02T12:06:59;5.17;;;1.83;;
5345;SDS011;2695;49.444;11.054;2022-11-02T12:09:41;10.70;;;2.57;;
5345;SDS011;2695;49.444;11.054;2022-11-02T12:12:17;11.83;;;2.20;;
5345;SDS011;2695;49.444;11.054;2022-11-02T12:14:55;3.90;;;1.63;;
5345;SDS011;2695;49.444;11.054;2022-11-02T12:17:39;7.87;;;2.20;;
5345;SDS011;2695;49.444;11.054;2022-11-02T12:20:34;6.00;;;2.17;;
5345;SDS011;2695;49.444;11.054;2022-11-02T12:23:24;7.77;;;1.80;;
5345;SDS011;2695;49.444;11.054;2022-11-02T12:26:05;10.47;;;2.30;;
5345;SDS011;2695;49.444;11.054;2022-11-02T12:28:45;13.83;;;3.03;;
5345;SDS011;2695;49.444;11.054;2022-11-02T12:31:30;4.43;;;1.97;;
5345;SDS011;2695;49.444;11.054;2022-11-02T12:34:07;8.97;;;2.70;;
5345;SDS011;2695;49.444;11.054;2022-11-02T12:36:56;14.67;;;2.33;;
5345;SDS011;2695;49.444;11.054;2022-11-02T12:39:55;7.73;;;2.07;;
5345;SDS011;2695;49.444;11.054;2022-11-02T12:42:36;9.83;;;2.47;;
5345;SDS011;2695;49.444;11.054;2022-11-02T12:45:19;3.83;;;1.33;;
5345;SDS011;2695;49.444;11.054;2022-11-02T12:47:54;6.73;;;1.80;;
5345;SDS011;2695;49.444;11.054;2022-11-02T12:50:28;8.50;;;1.97;;
5345;SDS011;2695;49.444;11.054;2022-11-02T12:53:32;2.73;;;1.00;;
5345;SDS011;2695;49.444;11.054;2022-11-02T12:56:07;7.17;;;2.10;;
5345;SDS011;2695;49.444;11.054;2022-11-02T12:58:41;7.47;;;1.50;;
5345;SDS011;2695;49.444;11.054;2022-11-02T13:01:12;6.30;;;1.47;;
5345;SDS011;2695;49.444;11.054;2022-11-02T13:03:54;5.20;;;1.83;;
5345;SDS011;2695;49.444;11.054;2022-11-02T13:06:28;6.70;;;1.63;;
5345;SDS011;2695;49.444;11.054;2022-11-02T13:09:01;8.67;;;1.80;;
5345;SDS011;2695;49.444;11.054;2022-11-02T13:11:35;8.63;;;2.10;;
5345;SDS011;2695;49.444;11.054;2022-11-02T13:14:10;8.07;;;2.50;;
5345;SDS011;2695;49.444;11.054;2022-11-02T13:16:42;6.53;;;1.90;;
5345;SDS011;2695;49.444;11.054;2022-11-02T13:19:17;7.57;;;2.00;;
5345;SDS011;2695;49.444;11.054;2022-11-02T13:21:48;7.23;;;1.57;;
5345;SDS011;2695;49.444;11.054;2022-11-02T13:24:21;6.13;;;2.20;;
5345;SDS011;2695;49.444;11.054;2022-11-02T13:26:57;5.07;;;2.10;;
5345;SDS011;2695;49.444;11.054;2022-11-02T13:29:48;6.43;;;1.93;;
5345;SDS011;2695;49.444;11.054;2022-11-02T13:32:20;3.10;;;1.40;;
5345;SDS011;2695;49.444;11.054;2022-11-02T13:34:59;4.70;;;1.60;;
5345;SDS011;2695;49.444;11.054;2022-11-02T13:37:33;16.60;;;2.50;;
5345;SDS011;2695;49.444;11.054;2022-11-02T13:40:06;9.73;;;1.93;;
5345;SDS011;2695;49.444;11.054;2022-11-02T13:42:48;6.27;;;2.13;;
5345;SDS011;2695;49.444;11.054;2022-11-02T13:45:46;4.77;;;1.60;;
5345;SDS011;2695;49.444;11.054;2022-11-02T13:48:39;7.37;;;2.47;;
5345;SDS011;2695;49.444;11.054;2022-11-02T13:51:22;2.27;;;1.20;;
5345;SDS011;2695;49.444;11.054;2022-11-02T13:53:57;12.47;;;1.57;;
5345;SDS011;2695;49.444;11.054;2022-11-02T13:56:29;8.80;;;1.87;;
5345;SDS011;2695;49.444;11.054;2022-11-02T13:59:02;5.87;;;1.57;;
5345;SDS011;2695;49.444;11.054;2022-11-02T14:01:34;5.00;;;2.13;;
5345;SDS011;2695;49.444;11.054;2022-11-02T14:04:07;5.97;;;1.97;;
5345;SDS011;2695;49.444;11.054;2022-11-02T14:06:44;6.07;;;1.90;;
5345;SDS011;2695;49.444;11.054;2022-11-02T14:09:20;4.90;;;1.80;;
5345;SDS011;2695;49.444;11.054;2022-11-02T14:12:09;8.37;;;1.80;;
5345;SDS011;2695;49.444;11.054;2022-11-02T14:18:02;6.47;;;2.03;;
5345;SDS011;2695;49.444;11.054;2022-11-02T14:20:42;7.03;;;1.87;;
5345;SDS011;2695;49.444;11.054;2022-11-02T14:23:34;10.00;;;2.07;;
5345;SDS011;2695;49.444;11.054;2022-11-02T14:29:46;6.07;;;1.67;;
5345;SDS011;2695;49.444;11.054;2022-11-02T14:32:18;6.10;;;1.90;;
5345;SDS011;2695;49.444;11.054;2022-11-02T14:34:57;6.80;;;1.83;;
5345;SDS011;2695;49.444;11.054;2022-11-02T14:37:44;4.37;;;1.80;;
5345;SDS011;2695;49.444;11.054;2022-11-02T14:40:27;10.83;;;1.90;;
5345;SDS011;2695;49.444;11.054;2022-11-02T14:43:16;8.30;;;2.40;;
5345;SDS011;2695;49.444;11.054;2022-11-02T14:46:15;13.63;;;2.47;;
5345;SDS011;2695;49.444;11.054;2022-11-02T14:48:53;5.47;;;1.37;;
5345;SDS011;2695;49.444;11.054;2022-11-02T14:51:25;12.27;;;2.00;;
5345;SDS011;2695;49.444;11.054;2022-11-02T14:53:55;5.60;;;1.90;;
5345;SDS011;2695;49.444;11.054;2022-11-02T14:59:16;9.53;;;2.30;;
5345;SDS011;2695;49.444;11.054;2022-11-02T15:01:50;8.10;;;2.00;;
5345;SDS011;2695;49.444;11.054;2022-11-02T15:04:23;7.63;;;1.63;;
5345;SDS011;2695;49.444;11.054;2022-11-02T15:06:54;7.57;;;1.73;;
5345;SDS011;2695;49.444;11.054;2022-11-02T15:12:25;15.10;;;2.33;;
5345;SDS011;2695;49.444;11.054;2022-11-02T15:17:57;7.50;;;2.30;;
5345;SDS011;2695;49.444;11.054;2022-11-02T15:23:51;11.57;;;2.53;;
5345;SDS011;2695;49.444;11.054;2022-11-02T15:26:30;7.87;;;1.90;;
5345;SDS011;2695;49.444;11.054;2022-11-02T15:29:10;8.30;;;2.43;;
5345;SDS011;2695;49.444;11.054;2022-11-02T15:31:48;11.87;;;2.73;;
5345;SDS011;2695;49.444;11.054;2022-11-02T15:34:22;19.13;;;2.77;;
5345;SDS011;2695;49.444;11.054;2022-11-02T15:36:57;4.93;;;2.17;;
5345;SDS011;2695;49.444;11.054;2022-11-02T15:39:27;7.07;;;1.90;;
5345;SDS011;2695;49.444;11.054;2022-11-02T15:42:00;12.53;;;2.70;;
5345;SDS011;2695;49.444;11.054;2022-11-02T15:44:33;6.83;;;2.13;;
5345;SDS011;2695;49.444;11.054;2022-11-02T15:47:22;21.77;;;2.27;;
5345;SDS011;2695;49.444;11.054;2022-11-02T15:50:13;10.10;;;3.20;;
5345;SDS011;2695;49.444;11.054;2022-11-02T15:53:00;8.80;;;3.07;;
5345;SDS011;2695;49.444;11.054;2022-11-02T15:55:56;6.73;;;2.10;;
5345;SDS011;2695;49.444;11.054;2022-11-02T15:58:46;9.63;;;3.20;;